createdAt,value
2019-02-18T00:01:05.611Z,15.10
2019-02-18T00:03:35.116Z,14.97
2019-02-18T00:06:04.667Z,20.60
2019-02-18T00:08:34.247Z,15.87
2019-02-18T00:11:03.810Z,14.23
2019-02-18T00:13:33.817Z,14.53
2019-02-18T00:16:03.703Z,13.97
2019-02-18T00:18:33.246Z,15.30
2019-02-18T00:21:03.096Z,14.10
2019-02-18T00:23:32.657Z,16.87
2019-02-18T00:26:02.602Z,14.67
2019-02-18T00:28:32.473Z,14.93
2019-02-18T00:31:01.981Z,16.13
2019-02-18T00:33:31.537Z,15.90
2019-02-18T00:36:01.090Z,15.33
2019-02-18T00:38:30.594Z,14.40
2019-02-18T00:41:00.555Z,15.97
2019-02-18T00:43:30.435Z,13.27
2019-02-18T00:46:00.137Z,12.70
2019-02-18T00:48:29.796Z,15.60
2019-02-18T00:50:59.320Z,13.37
2019-02-18T00:53:28.840Z,16.83
2019-02-18T00:55:58.738Z,13.93
2019-02-18T00:58:28.285Z,14.87
2019-02-18T01:00:57.824Z,15.10
2019-02-18T01:03:27.684Z,17.70
2019-02-18T01:05:57.185Z,17.20
2019-02-18T01:08:26.750Z,19.60
2019-02-18T01:10:56.755Z,17.27
2019-02-18T01:13:26.635Z,16.90
2019-02-18T01:15:56.273Z,15.97
2019-02-18T01:18:25.758Z,18.30
2019-02-18T01:20:55.286Z,14.30
2019-02-18T01:23:24.792Z,14.50
2019-02-18T01:25:54.349Z,15.07
2019-02-18T01:28:23.850Z,15.43
2019-02-18T01:30:53.362Z,17.43
2019-02-18T01:33:22.912Z,15.13
2019-02-18T01:35:52.421Z,14.97
2019-02-18T01:38:21.982Z,13.27
2019-02-18T01:40:51.547Z,12.87
2019-02-18T01:43:21.037Z,16.77
2019-02-18T01:45:50.540Z,15.37
2019-02-18T01:48:20.086Z,13.77
2019-02-18T01:50:49.591Z,18.20
2019-02-18T01:53:19.149Z,13.30
2019-02-18T01:55:48.712Z,17.40
2019-02-18T01:58:18.285Z,16.47
2019-02-18T02:00:47.771Z,13.30
2019-02-18T02:03:17.324Z,13.90
2019-02-18T02:05:46.919Z,13.27
2019-02-18T02:08:16.456Z,16.17
2019-02-18T02:10:46.056Z,15.77
2019-02-18T02:13:36.030Z,14.77
2019-02-18T02:16:08.316Z,25.03
2019-02-18T02:18:38.248Z,16.03
2019-02-18T02:21:07.813Z,16.03
2019-02-18T02:23:37.304Z,15.80
2019-02-18T02:26:06.829Z,16.37
2019-02-18T02:28:36.332Z,16.50
2019-02-18T02:31:05.992Z,16.90
2019-02-18T02:33:35.514Z,17.93
2019-02-18T02:36:05.055Z,17.03
2019-02-18T02:38:34.584Z,14.50
2019-02-18T02:41:04.101Z,19.07
2019-02-18T02:43:33.627Z,19.80
2019-02-18T02:46:03.128Z,17.80
2019-02-18T02:48:32.690Z,17.37
2019-02-18T02:51:02.229Z,19.57
2019-02-18T02:53:32.140Z,19.07
2019-02-18T02:56:02.045Z,19.90
2019-02-18T02:58:31.577Z,20.30
2019-02-18T03:01:01.101Z,19.63
2019-02-18T03:03:31.053Z,21.00
2019-02-18T03:06:00.965Z,17.23
2019-02-18T03:08:30.505Z,20.70
2019-02-18T03:11:00.408Z,18.87
2019-02-18T03:13:29.896Z,22.27
2019-02-18T03:15:59.780Z,19.13
2019-02-18T03:18:29.271Z,17.33
2019-02-18T03:20:58.849Z,23.97
2019-02-18T03:23:28.324Z,21.80
2019-02-18T03:25:58.099Z,20.10
2019-02-18T03:29:29.944Z,19.67
2019-02-18T03:31:59.871Z,17.30
2019-02-18T03:34:48.880Z,22.53
2019-02-18T03:37:18.910Z,18.60
2019-02-18T03:39:48.432Z,22.07
2019-02-18T03:42:17.973Z,19.63
2019-02-18T03:44:47.522Z,19.20
2019-02-18T03:47:17.042Z,16.67
2019-02-18T03:49:46.533Z,19.90
2019-02-18T03:52:16.117Z,18.17
2019-02-18T03:54:46.118Z,20.23
2019-02-18T03:57:15.661Z,20.27
2019-02-18T03:59:45.393Z,19.27
2019-02-18T04:02:14.879Z,21.77
2019-02-18T04:04:44.413Z,17.93
2019-02-18T04:07:13.940Z,20.10
2019-02-18T04:09:43.464Z,19.07
2019-02-18T04:12:13.328Z,20.63
2019-02-18T04:14:42.832Z,19.67
2019-02-18T04:17:12.363Z,24.63
2019-02-18T04:19:41.880Z,18.53
2019-02-18T04:22:11.767Z,18.70
2019-02-18T04:24:41.243Z,21.30
2019-02-18T04:27:10.801Z,19.33
2019-02-18T04:29:40.276Z,15.60
2019-02-18T04:32:09.815Z,15.63
2019-02-18T04:34:39.321Z,21.80
2019-02-18T04:37:08.795Z,25.30
2019-02-18T04:39:38.423Z,20.93
2019-02-18T04:42:07.977Z,19.43
2019-02-18T04:44:37.542Z,20.03
2019-02-18T04:47:07.051Z,18.80
2019-02-18T04:49:36.572Z,20.60
2019-02-18T04:52:06.469Z,18.70
2019-02-18T04:54:35.990Z,20.63
2019-02-18T04:57:05.946Z,17.43
2019-02-18T04:59:35.474Z,22.80
2019-02-18T05:02:05.006Z,19.00
2019-02-18T05:04:34.532Z,19.13
2019-02-18T05:07:04.011Z,19.20
2019-02-18T05:09:33.581Z,20.80
2019-02-18T05:12:03.103Z,21.03
2019-02-18T05:14:32.661Z,22.17
2019-02-18T05:17:02.164Z,17.60
2019-02-18T05:19:31.817Z,17.83
2019-02-18T05:22:01.328Z,21.33
2019-02-18T05:24:30.895Z,19.77
2019-02-18T05:27:00.380Z,21.40
2019-02-18T05:29:29.877Z,22.53
2019-02-18T05:31:59.448Z,25.07
2019-02-18T05:34:28.953Z,17.67
2019-02-18T05:36:58.477Z,20.40
2019-02-18T05:39:27.970Z,21.17
2019-02-18T05:41:57.994Z,18.10
2019-02-18T05:44:27.496Z,18.20
2019-02-18T05:46:57.326Z,20.27
2019-02-18T05:49:27.729Z,18.97
2019-02-18T05:51:57.225Z,22.03
2019-02-18T05:54:26.797Z,19.13
2019-02-18T05:56:56.759Z,23.00
2019-02-18T05:59:26.381Z,19.20
2019-02-18T06:01:56.280Z,21.00
2019-02-18T06:04:25.772Z,19.60
2019-02-18T06:06:55.344Z,20.97
2019-02-18T06:09:29.750Z,20.50
2019-02-18T06:11:57.243Z,20.07
2019-02-18T06:14:26.763Z,22.50
2019-02-18T06:16:56.797Z,20.63
2019-02-18T06:19:26.342Z,19.00
2019-02-18T06:21:56.888Z,21.73
2019-02-18T06:24:26.412Z,19.90
2019-02-18T06:26:55.913Z,21.70
2019-02-18T06:29:25.460Z,18.87
2019-02-18T06:31:55.018Z,22.90
2019-02-18T06:34:24.896Z,24.37
2019-02-18T06:36:54.393Z,22.10
2019-02-18T06:39:23.914Z,25.33
2019-02-18T06:41:53.448Z,24.20
2019-02-18T06:44:32.049Z,23.80
2019-02-18T06:47:05.665Z,22.33
2019-02-18T06:49:35.372Z,23.03
2019-02-18T06:52:05.473Z,28.57
2019-02-18T06:54:34.996Z,26.13
2019-02-18T06:57:23.980Z,24.27
2019-02-18T07:00:02.090Z,27.43
2019-02-18T07:02:34.948Z,24.90
2019-02-18T07:05:29.484Z,29.87
2019-02-18T07:08:20.920Z,25.83
2019-02-18T07:11:13.024Z,28.50
2019-02-18T07:13:42.542Z,30.07
2019-02-18T07:16:12.398Z,32.57
2019-02-18T07:18:41.917Z,29.43
2019-02-18T07:21:11.458Z,36.53
2019-02-18T07:23:40.994Z,30.80
2019-02-18T07:26:11.198Z,29.07
2019-02-18T07:28:40.724Z,34.80
2019-02-18T07:31:10.273Z,27.80
2019-02-18T07:33:39.797Z,26.47
2019-02-18T07:36:09.284Z,29.13
2019-02-18T07:38:38.792Z,26.27
2019-02-18T07:41:08.364Z,25.43
2019-02-18T07:43:37.844Z,22.40
2019-02-18T07:46:07.391Z,32.07
2019-02-18T07:48:37.370Z,31.10
2019-02-18T07:51:06.895Z,26.20
2019-02-18T07:53:36.777Z,32.17
2019-02-18T07:56:06.326Z,25.83
2019-02-18T07:58:35.910Z,27.93
2019-02-18T08:01:05.420Z,35.37
2019-02-18T08:03:35.607Z,28.13
2019-02-18T08:06:05.199Z,28.60
2019-02-18T08:08:34.711Z,35.23
2019-02-18T08:11:04.227Z,30.90
2019-02-18T08:13:33.797Z,30.93
2019-02-18T08:16:03.383Z,27.33
2019-02-18T08:18:33.174Z,25.70
2019-02-18T08:21:02.642Z,26.17
2019-02-18T08:23:34.684Z,22.27
2019-02-18T08:26:06.587Z,23.80
2019-02-18T08:28:36.732Z,27.00
2019-02-18T08:31:06.824Z,28.67
2019-02-18T08:33:37.310Z,27.97
2019-02-18T08:36:08.123Z,26.10
2019-02-18T08:38:37.774Z,24.33
2019-02-18T08:41:07.326Z,24.87
2019-02-18T08:43:36.810Z,21.70
2019-02-18T08:46:06.398Z,18.23
2019-02-18T08:48:35.924Z,21.43
2019-02-18T08:51:05.463Z,19.00
2019-02-18T08:53:34.964Z,19.63
2019-02-18T08:56:04.516Z,19.10
2019-02-18T08:58:34.062Z,19.03
2019-02-18T09:01:03.943Z,20.53
2019-02-18T09:03:33.505Z,16.17
2019-02-18T09:06:03.400Z,17.83
2019-02-18T09:08:33.007Z,16.97
2019-02-18T09:11:02.526Z,14.03
2019-02-18T09:13:32.482Z,15.10
2019-02-18T09:16:02.357Z,15.63
2019-02-18T09:18:32.068Z,15.03
2019-02-18T09:21:01.583Z,14.57
2019-02-18T09:23:41.837Z,15.40
2019-02-18T09:26:12.618Z,14.30
2019-02-18T09:28:42.415Z,12.10
2019-02-18T09:31:11.899Z,16.87
2019-02-18T09:33:41.495Z,12.87
2019-02-18T09:36:10.944Z,13.30
2019-02-18T09:38:40.496Z,15.47
2019-02-18T09:41:10.001Z,14.37
2019-02-18T09:43:39.929Z,13.17
2019-02-18T09:46:09.448Z,12.80
2019-02-18T09:48:39.076Z,14.63
2019-02-18T09:51:08.645Z,14.23
2019-02-18T09:53:38.154Z,11.27
2019-02-18T09:56:07.667Z,16.00
2019-02-18T09:58:37.164Z,13.00
2019-02-18T10:01:07.016Z,11.27
2019-02-18T10:03:36.561Z,11.80
2019-02-18T10:06:06.115Z,12.97
2019-02-18T10:08:35.641Z,12.13
2019-02-18T10:11:05.152Z,18.60
2019-02-18T10:13:34.641Z,10.17
2019-02-18T10:16:04.153Z,10.93
2019-02-18T10:18:34.092Z,11.43
2019-02-18T10:21:03.611Z,12.23
2019-02-18T10:23:33.536Z,9.60
2019-02-18T10:26:03.044Z,13.00
2019-02-18T10:28:32.641Z,11.50
2019-02-18T10:31:02.150Z,11.17
2019-02-18T10:33:31.674Z,10.90
2019-02-18T10:36:01.608Z,14.40
2019-02-18T10:38:31.448Z,11.30
2019-02-18T10:41:06.921Z,23.03
2019-02-18T10:43:32.891Z,15.13
2019-02-18T10:46:02.841Z,13.83
2019-02-18T10:48:32.366Z,12.07
2019-02-18T10:51:01.894Z,12.20
2019-02-18T10:53:31.586Z,11.30
2019-02-18T10:56:01.072Z,14.13
2019-02-18T10:58:30.551Z,11.10
2019-02-18T11:01:00.084Z,9.57
2019-02-18T11:03:29.638Z,11.73
2019-02-18T11:05:59.564Z,15.27
2019-02-18T11:08:29.114Z,12.13
2019-02-18T11:10:59.997Z,11.33
2019-02-18T11:13:30.462Z,12.80
2019-02-18T11:16:00.000Z,13.40
2019-02-18T11:18:29.939Z,10.73
2019-02-18T11:20:59.516Z,12.03
2019-02-18T11:23:29.820Z,12.10
2019-02-18T11:25:59.479Z,15.27
2019-02-18T11:28:29.196Z,12.33
2019-02-18T11:30:58.725Z,10.63
2019-02-18T11:33:28.301Z,13.97
2019-02-18T11:35:58.236Z,12.50
2019-02-18T11:38:27.906Z,11.87
2019-02-18T11:40:57.853Z,15.77
2019-02-18T11:43:27.420Z,13.83
2019-02-18T11:45:57.310Z,11.10
2019-02-18T11:48:26.829Z,11.60
2019-02-18T11:50:57.157Z,11.53
2019-02-18T11:53:26.673Z,11.97
2019-02-18T11:55:56.691Z,13.77
2019-02-18T11:58:26.188Z,11.70
2019-02-18T12:00:56.045Z,12.77
2019-02-18T12:03:25.983Z,12.70
2019-02-18T12:05:55.490Z,12.43
2019-02-18T12:08:25.313Z,14.80
2019-02-18T12:10:54.811Z,10.90
2019-02-18T12:13:24.508Z,11.67
2019-02-18T12:15:53.999Z,12.93
2019-02-18T12:18:23.550Z,14.00
2019-02-18T12:20:53.285Z,12.13
2019-02-18T12:23:22.822Z,11.97
2019-02-18T12:25:52.336Z,12.37
2019-02-18T12:28:21.892Z,15.83
2019-02-18T12:30:52.261Z,13.67
2019-02-18T12:33:22.153Z,14.90
2019-02-18T12:35:51.966Z,16.00
2019-02-18T12:38:21.561Z,12.20
2019-02-18T12:40:51.025Z,11.10
2019-02-18T12:43:20.565Z,11.57
2019-02-18T12:45:50.136Z,13.23
2019-02-18T12:48:20.411Z,14.30
2019-02-18T12:50:49.948Z,15.63
2019-02-18T12:53:19.709Z,11.00
2019-02-18T12:55:49.672Z,11.40
2019-02-18T12:58:19.197Z,13.70
2019-02-18T13:00:48.743Z,11.93
2019-02-18T13:03:18.353Z,13.90
2019-02-18T13:05:48.344Z,11.77
2019-02-18T13:08:17.901Z,14.70
2019-02-18T13:10:47.441Z,14.60
2019-02-18T13:13:16.974Z,15.40
2019-02-18T13:15:46.527Z,13.80
2019-02-18T13:18:16.076Z,14.10
2019-02-18T13:20:45.611Z,14.37
2019-02-18T13:23:15.172Z,42.60
2019-02-18T13:25:47.555Z,16.13
2019-02-18T13:28:16.278Z,12.10
2019-02-18T13:30:45.799Z,15.57
2019-02-18T13:33:15.744Z,13.50
2019-02-18T13:35:45.276Z,14.33
2019-02-18T13:38:14.809Z,13.10
2019-02-18T13:40:44.353Z,12.33
2019-02-18T13:43:13.894Z,12.77
2019-02-18T13:45:43.496Z,12.60
2019-02-18T13:48:13.185Z,11.70
2019-02-18T13:50:43.078Z,11.93
2019-02-18T13:53:12.973Z,16.33
2019-02-18T13:55:42.511Z,13.90
2019-02-18T13:58:12.396Z,14.97
2019-02-18T14:00:42.456Z,12.10
2019-02-18T14:03:12.705Z,13.60
2019-02-18T14:05:42.797Z,16.50
2019-02-18T14:08:12.696Z,15.10
2019-02-18T14:10:42.684Z,12.90
2019-02-18T14:13:12.198Z,12.40
2019-02-18T14:15:42.696Z,13.70
2019-02-18T14:18:12.629Z,20.03
2019-02-18T14:20:42.372Z,13.10
2019-02-18T14:23:11.882Z,15.13
2019-02-18T14:25:41.699Z,12.67
2019-02-18T14:28:11.259Z,11.47
2019-02-18T14:30:40.841Z,11.07
2019-02-18T14:33:10.331Z,13.83
2019-02-18T14:35:40.172Z,14.67
2019-02-18T14:38:10.002Z,11.00
2019-02-18T14:40:39.496Z,13.00
2019-02-18T14:43:09.214Z,10.90
2019-02-18T14:45:38.726Z,14.50
2019-02-18T14:48:09.268Z,13.80
2019-02-18T14:50:38.908Z,12.17
2019-02-18T14:53:08.554Z,11.73
2019-02-18T14:55:38.056Z,17.77
2019-02-18T14:58:07.877Z,13.17
2019-02-18T15:00:37.813Z,15.13
2019-02-18T15:03:07.616Z,11.70
2019-02-18T15:05:37.542Z,11.60
2019-02-18T15:08:07.120Z,14.33
2019-02-18T15:10:36.636Z,12.60
2019-02-18T15:13:06.400Z,13.67
2019-02-18T15:15:35.923Z,11.80
2019-02-18T15:18:05.956Z,11.00
2019-02-18T15:20:35.500Z,12.43
2019-02-18T15:23:05.147Z,17.77
2019-02-18T15:25:35.066Z,12.97
2019-02-18T15:28:04.584Z,12.07
2019-02-18T15:30:34.137Z,13.10
2019-02-18T15:33:03.733Z,14.60
2019-02-18T15:35:34.164Z,11.90
2019-02-18T15:38:04.500Z,11.40
2019-02-18T15:40:35.190Z,12.37
2019-02-18T15:43:05.108Z,12.60
2019-02-18T15:45:35.326Z,16.00
2019-02-18T15:48:04.996Z,12.40
2019-02-18T15:50:34.544Z,13.13
2019-02-18T15:53:04.237Z,13.63
2019-02-18T15:55:33.727Z,13.70
2019-02-18T15:58:03.664Z,12.00
2019-02-18T16:00:33.395Z,15.37
2019-02-18T16:03:03.061Z,15.33
2019-02-18T16:05:32.621Z,15.40
2019-02-18T16:08:02.174Z,17.83
2019-02-18T16:10:31.793Z,13.33
2019-02-18T16:13:01.325Z,14.03
2019-02-18T16:15:30.801Z,14.47
2019-02-18T16:18:00.356Z,11.97
2019-02-18T16:20:29.872Z,13.67
2019-02-18T16:22:59.379Z,15.37
2019-02-18T16:25:28.885Z,14.90
2019-02-18T16:27:58.821Z,16.23
2019-02-18T16:30:28.877Z,22.63
2019-02-18T16:32:58.420Z,18.67
2019-02-18T16:35:28.379Z,19.90
2019-02-18T16:37:58.272Z,20.20
2019-02-18T16:40:28.094Z,23.03
2019-02-18T16:42:59.299Z,16.97
2019-02-18T16:45:28.778Z,15.53
2019-02-18T16:47:58.332Z,16.73
2019-02-18T16:50:27.869Z,15.13
2019-02-18T16:52:57.862Z,15.57
2019-02-18T16:55:27.479Z,19.07
2019-02-18T16:57:57.036Z,18.80
2019-02-18T17:00:27.758Z,13.67
2019-02-18T17:02:57.308Z,16.33
2019-02-18T17:05:26.844Z,13.27
2019-02-18T17:07:56.518Z,17.47
2019-02-18T17:10:26.444Z,20.03
2019-02-18T17:12:56.313Z,17.03
2019-02-18T17:15:25.852Z,14.40
2019-02-18T17:17:55.660Z,17.70
2019-02-18T17:20:25.204Z,21.37
2019-02-18T17:22:54.843Z,16.57
2019-02-18T17:25:24.734Z,18.53
2019-02-18T17:27:54.266Z,16.87
2019-02-18T17:30:23.796Z,19.90
2019-02-18T17:32:53.881Z,24.37
2019-02-18T17:35:23.439Z,19.10
2019-02-18T17:37:52.941Z,17.20
2019-02-18T17:40:23.065Z,16.70
2019-02-18T17:42:52.565Z,16.77
2019-02-18T17:45:25.304Z,19.07
2019-02-18T17:47:54.853Z,19.07
2019-02-18T17:50:24.384Z,24.10
2019-02-18T17:52:53.919Z,21.47
2019-02-18T17:55:23.982Z,23.93
2019-02-18T17:57:53.521Z,23.70
2019-02-18T18:00:25.197Z,19.43
2019-02-18T18:02:54.706Z,24.33
2019-02-18T18:05:24.497Z,24.10
2019-02-18T18:07:54.110Z,21.77
2019-02-18T18:10:23.688Z,19.57
2019-02-18T18:12:53.227Z,25.10
2019-02-18T18:15:22.808Z,20.53
2019-02-18T18:17:52.739Z,22.40
2019-02-18T18:20:22.220Z,20.37
2019-02-18T18:22:51.741Z,20.20
2019-02-18T18:25:21.280Z,19.70
2019-02-18T18:27:51.162Z,22.90
2019-02-18T18:30:20.696Z,21.20
2019-02-18T18:32:50.229Z,21.80
2019-02-18T18:35:19.753Z,26.43
2019-02-18T18:37:49.270Z,26.80
2019-02-18T18:40:18.861Z,21.43
2019-02-18T18:42:48.776Z,18.80
2019-02-18T18:45:18.292Z,23.60
2019-02-18T18:47:47.839Z,20.83
2019-02-18T18:50:18.039Z,22.73
2019-02-18T18:52:47.859Z,24.27
2019-02-18T18:55:17.857Z,25.37
2019-02-18T18:57:47.464Z,20.03
2019-02-18T19:00:21.881Z,20.63
2019-02-18T19:02:51.407Z,34.80
2019-02-18T19:05:21.330Z,29.10
2019-02-18T19:07:51.256Z,26.43
2019-02-18T19:10:21.502Z,25.60
2019-02-18T19:12:51.003Z,25.47
2019-02-18T19:15:21.020Z,23.73
2019-02-18T19:17:50.518Z,24.77
2019-02-18T19:20:20.076Z,22.60
2019-02-18T19:22:49.628Z,23.60
2019-02-18T19:25:19.141Z,23.57
2019-02-18T19:27:48.679Z,23.93
2019-02-18T19:30:20.961Z,33.00
2019-02-18T19:32:50.825Z,26.63
2019-02-18T19:35:20.487Z,26.90
2019-02-18T19:37:50.049Z,24.17
2019-02-18T19:40:19.683Z,24.07
2019-02-18T19:42:49.362Z,25.00
2019-02-18T19:45:20.030Z,23.20
2019-02-18T19:47:49.626Z,24.60
2019-02-18T19:50:19.245Z,21.70
2019-02-18T19:52:48.756Z,22.43
2019-02-18T19:55:18.455Z,27.57
2019-02-18T19:57:48.011Z,23.00
2019-02-18T20:00:18.344Z,25.07
2019-02-18T20:02:48.224Z,25.57
2019-02-18T20:05:17.841Z,26.67
2019-02-18T20:07:47.684Z,25.27
2019-02-18T20:10:17.360Z,26.60
2019-02-18T20:12:47.320Z,27.93
2019-02-18T20:15:16.961Z,22.40
2019-02-18T20:17:46.981Z,24.70
2019-02-18T20:20:16.521Z,26.30
2019-02-18T20:22:46.376Z,21.90
2019-02-18T20:25:15.923Z,24.60
2019-02-18T20:27:46.193Z,22.53
2019-02-18T20:30:15.768Z,23.27
2019-02-18T20:32:45.621Z,21.83
2019-02-18T20:35:15.282Z,20.77
2019-02-18T20:37:44.763Z,21.77
2019-02-18T20:40:14.757Z,19.80
2019-02-18T20:42:44.898Z,21.03
2019-02-18T20:45:14.517Z,21.43
2019-02-18T20:47:44.079Z,22.23
2019-02-18T20:50:13.642Z,20.10
2019-02-18T20:52:43.219Z,19.50
2019-02-18T20:55:13.459Z,23.23
2019-02-18T20:57:42.955Z,18.90
2019-02-18T21:00:18.357Z,17.27
2019-02-18T21:02:48.410Z,23.00
2019-02-18T21:05:17.921Z,17.43
2019-02-18T21:07:47.536Z,23.10
2019-02-18T21:10:17.840Z,19.33
2019-02-18T21:12:47.340Z,17.73
2019-02-18T21:15:16.931Z,18.87
2019-02-18T21:17:46.415Z,21.13
2019-02-18T21:20:16.176Z,21.23
2019-02-18T21:22:45.733Z,19.70
2019-02-18T21:25:15.335Z,19.30
2019-02-18T21:27:45.568Z,20.83
2019-02-18T21:30:15.154Z,16.73
2019-02-18T21:32:44.849Z,16.57
2019-02-18T21:35:14.409Z,17.73
2019-02-18T21:37:44.543Z,14.80
2019-02-18T21:40:14.283Z,18.07
2019-02-18T21:42:43.950Z,20.07
2019-02-18T21:45:13.686Z,21.27
2019-02-18T21:47:43.221Z,16.57
2019-02-18T21:50:13.090Z,18.03
2019-02-18T21:52:43.193Z,18.40
2019-02-18T21:55:14.096Z,18.93
2019-02-18T21:57:43.606Z,17.13
2019-02-18T22:00:18.551Z,16.77
2019-02-18T22:02:48.467Z,14.67
2019-02-18T22:05:18.588Z,19.10
2019-02-18T22:07:48.138Z,18.30
2019-02-18T22:10:17.674Z,17.90
2019-02-18T22:12:47.241Z,14.53
2019-02-18T22:15:16.840Z,17.50
2019-02-18T22:17:46.396Z,18.20
2019-02-18T22:20:16.302Z,15.67
2019-02-18T22:22:45.878Z,14.27
2019-02-18T22:25:15.380Z,21.73
2019-02-18T22:27:44.919Z,16.17
2019-02-18T22:30:14.771Z,21.30
2019-02-18T22:32:44.286Z,15.87
2019-02-18T22:35:14.145Z,16.93
2019-02-18T22:37:43.856Z,18.40
2019-02-18T22:40:13.734Z,18.00
2019-02-18T22:42:43.242Z,17.47
2019-02-18T22:45:12.929Z,15.60
2019-02-18T22:47:42.443Z,15.67
2019-02-18T22:50:12.135Z,16.53
2019-02-18T22:52:41.656Z,15.57
2019-02-18T22:55:11.593Z,15.33
2019-02-18T22:57:41.566Z,20.33
2019-02-18T23:01:00.450Z,20.10
2019-02-18T23:03:30.017Z,13.67
2019-02-18T23:05:59.689Z,19.90
2019-02-18T23:08:29.171Z,16.37
2019-02-18T23:10:59.195Z,18.50
2019-02-18T23:13:28.786Z,16.07
2019-02-18T23:15:58.727Z,20.33
2019-02-18T23:18:28.595Z,17.13
2019-02-18T23:20:58.077Z,16.17
2019-02-18T23:23:28.019Z,17.57
2019-02-18T23:25:57.977Z,20.23
2019-02-18T23:28:27.853Z,16.17
2019-02-18T23:30:57.590Z,17.60
2019-02-18T23:33:27.516Z,18.23
2019-02-18T23:35:57.068Z,17.13
2019-02-18T23:38:26.983Z,18.20
2019-02-18T23:40:56.439Z,14.53
2019-02-18T23:43:26.352Z,13.73
2019-02-18T23:45:55.878Z,15.67
2019-02-18T23:48:25.744Z,16.53
2019-02-18T23:50:55.279Z,14.53
2019-02-18T23:53:24.812Z,16.80
2019-02-18T23:55:54.324Z,14.60
2019-02-18T23:58:24.297Z,20.30
